Time;durP1;ratioP1;P1;durP2;ratioP2;P2;SDS_P1;SDS_P2;PMS_P1;PMS_P2;Temp;Humidity;BMP_temperature;BMP_pressure;BME280_temperature;BME280_humidity;BME280_pressure;Samples;Min_cycle;Max_cycle;Signal;HPM_P1;HPM_P2
2023/07/09 00:02:12;;;;;;;5.05;2.08;;;22.90;99.90;;;;;;5016844;28;20038;-71
2023/07/09 00:04:38;;;;;;;5.72;2.13;;;22.80;99.90;;;;;;5030841;28;20029;-71
2023/07/09 00:07:04;;;;;;;4.78;2.05;;;22.80;99.90;;;;;;5028141;28;20030;-71
2023/07/09 00:09:30;;;;;;;6.22;1.88;;;22.80;99.90;;;;;;5024730;28;20024;-71
2023/07/09 00:11:57;;;;;;;6.45;2.35;;;22.90;99.90;;;;;;5043951;28;20367;-71
2023/07/09 00:14:23;;;;;;;2.97;1.30;;;22.70;99.90;;;;;;5013139;28;20431;-71
2023/07/09 00:16:49;;;;;;;4.55;1.83;;;22.40;99.90;;;;;;5020502;28;20030;-71
2023/07/09 00:19:20;;;;;;;7.38;2.28;;;22.30;99.90;;;;;;5024261;28;20497;-71
2023/07/09 00:21:49;;;;;;;7.15;2.50;;;22.40;99.90;;;;;;5028670;28;20029;-71
2023/07/09 00:24:15;;;;;;;4.22;1.90;;;22.30;99.90;;;;;;5003864;28;20368;-71
2023/07/09 00:26:41;;;;;;;7.68;2.22;;;22.20;99.90;;;;;;5015225;28;20045;-71
2023/07/09 00:29:11;;;;;;;4.85;2.17;;;22.20;99.90;;;;;;5030574;28;20033;-71
2023/07/09 00:31:41;;;;;;;5.20;2.35;;;22.20;99.90;;;;;;5036412;28;20037;-71
2023/07/09 00:34:13;;;;;;;4.78;1.75;;;22.30;99.90;;;;;;5023213;28;20021;-71
2023/07/09 00:36:40;;;;;;;5.65;2.30;;;22.30;99.90;;;;;;5044529;28;20037;-72
2023/07/09 00:39:19;;;;;;;4.35;2.00;;;22.40;99.90;;;;;;5039162;28;20112;-71
2023/07/09 00:41:46;;;;;;;7.47;2.88;;;22.30;99.90;;;;;;5028547;28;20033;-71
2023/07/09 00:44:33;;;;;;;6.45;2.53;;;22.20;99.90;;;;;;5023641;28;20040;-71
2023/07/09 00:47:01;;;;;;;6.82;2.08;;;22.40;99.90;;;;;;5024771;28;20037;-71
2023/07/09 00:49:33;;;;;;;5.22;2.00;;;22.30;99.90;;;;;;5024137;28;20061;-71
2023/07/09 00:52:17;;;;;;;5.82;1.85;;;22.20;99.90;;;;;;5024743;28;20030;-71
2023/07/09 00:54:46;;;;;;;7.90;2.00;;;22.20;99.90;;;;;;5024833;28;20029;-72
2023/07/09 00:57:19;;;;;;;4.38;2.00;;;22.20;99.90;;;;;;5026519;28;20037;-71
2023/07/09 00:59:51;;;;;;;7.63;1.90;;;22.20;99.90;;;;;;5024269;28;20473;-71
2023/07/09 01:02:22;;;;;;;4.88;2.00;;;22.10;99.90;;;;;;5022749;28;20029;-71
2023/07/09 01:04:55;;;;;;;4.38;1.80;;;22.00;99.90;;;;;;5028646;28;20026;-71
2023/07/09 01:07:21;;;;;;;5.53;2.55;;;22.20;99.90;;;;;;5004852;28;20057;-71
2023/07/09 01:09:47;;;;;;;3.72;1.80;;;22.20;99.90;;;;;;5029724;28;20041;-71
2023/07/09 01:12:18;;;;;;;3.42;1.33;;;22.30;99.90;;;;;;5027861;28;20051;-72
2023/07/09 01:14:48;;;;;;;4.75;2.05;;;22.40;99.90;;;;;;5021410;28;20390;-72
2023/07/09 01:17:14;;;;;;;6.13;2.05;;;22.30;99.90;;;;;;5028455;28;20035;-71
2023/07/09 01:19:43;;;;;;;9.88;2.30;;;22.20;99.90;;;;;;5041677;28;20029;-74
2023/07/09 01:22:15;;;;;;;3.10;1.60;;;22.20;99.90;;;;;;5039737;28;20053;-73
2023/07/09 01:24:52;;;;;;;3.97;2.13;;;22.10;99.90;;;;;;5041260;28;20481;-71
2023/07/09 01:27:23;;;;;;;4.30;2.08;;;21.90;99.90;;;;;;5040148;28;20075;-74
2023/07/09 01:29:49;;;;;;;7.30;2.05;;;21.70;99.90;;;;;;5024414;28;20033;-74
2023/07/09 01:32:18;;;;;;;6.38;2.42;;;21.90;99.90;;;;;;5026121;28;20041;-74
2023/07/09 01:34:47;;;;;;;5.25;1.92;;;21.80;99.90;;;;;;5024240;28;20071;-74
2023/07/09 01:37:23;;;;;;;5.20;2.10;;;21.70;99.90;;;;;;5040168;28;20029;-73
2023/07/09 01:39:51;;;;;;;6.55;2.03;;;21.60;99.90;;;;;;5045577;28;20492;-74
2023/07/09 01:42:21;;;;;;;3.28;1.80;;;21.70;99.90;;;;;;5015108;28;20052;-74
2023/07/09 01:44:50;;;;;;;6.20;2.30;;;21.60;99.90;;;;;;5045542;28;20502;-74
2023/07/09 01:47:17;;;;;;;5.13;2.40;;;21.60;99.90;;;;;;5044010;28;20036;-74
2023/07/09 01:49:46;;;;;;;4.45;1.75;;;21.60;99.90;;;;;;5027859;28;20025;-74
2023/07/09 01:52:14;;;;;;;5.38;1.80;;;21.70;99.90;;;;;;5047822;28;20113;-74
2023/07/09 01:54:40;;;;;;;4.68;1.75;;;21.60;99.90;;;;;;4995214;28;20029;-74
2023/07/09 01:57:24;;;;;;;4.70;1.52;;;21.60;99.90;;;;;;5043102;28;20438;-75
2023/07/09 01:59:55;;;;;;;3.97;1.75;;;21.40;99.90;;;;;;5027923;28;20397;-74
2023/07/09 02:02:22;;;;;;;10.90;2.58;;;21.40;99.90;;;;;;5043118;28;20061;-74
2023/07/09 02:04:53;;;;;;;2.97;1.67;;;21.30;99.90;;;;;;5027690;28;20029;-75
2023/07/09 02:07:23;;;;;;;3.90;1.95;;;21.30;99.90;;;;;;5025928;28;20029;-75
2023/07/09 02:09:50;;;;;;;4.10;2.08;;;21.40;99.90;;;;;;5027195;28;20033;-75
2023/07/09 02:12:17;;;;;;;3.72;2.10;;;21.50;99.90;;;;;;5029466;28;20128;-75
2023/07/09 02:14:45;;;;;;;9.68;2.30;;;21.30;99.90;;;;;;5039824;28;20049;-75
2023/07/09 02:17:13;;;;;;;11.38;2.67;;;21.30;99.90;;;;;;5000146;28;20053;-74
2023/07/09 02:19:40;;;;;;;3.45;1.88;;;21.20;99.90;;;;;;5044993;28;20043;-75
2023/07/09 02:22:06;;;;;;;4.10;1.67;;;21.00;99.90;;;;;;5027821;28;20088;-74
2023/07/09 02:24:33;;;;;;;4.25;1.98;;;20.90;99.90;;;;;;5020506;28;20029;-74
2023/07/09 02:27:01;;;;;;;6.10;2.75;;;21.00;99.90;;;;;;5035945;28;20564;-74
2023/07/09 02:29:29;;;;;;;5.68;2.47;;;21.10;99.90;;;;;;5019913;28;20036;-74
2023/07/09 02:31:57;;;;;;;5.25;2.28;;;21.20;99.90;;;;;;5029295;28;20040;-74
2023/07/09 02:34:26;;;;;;;7.15;2.25;;;21.20;99.90;;;;;;5040876;28;20072;-75
2023/07/09 02:36:57;;;;;;;7.80;2.42;;;21.30;99.90;;;;;;5036599;28;20109;-74
2023/07/09 02:39:24;;;;;;;5.45;2.40;;;21.50;99.90;;;;;;5033559;28;20022;-74
2023/07/09 02:41:50;;;;;;;5.07;2.33;;;21.50;99.90;;;;;;5010897;28;20513;-74
2023/07/09 02:44:17;;;;;;;5.32;2.70;;;21.50;99.90;;;;;;5040100;28;20026;-74
2023/07/09 02:46:43;;;;;;;5.47;2.53;;;21.20;99.90;;;;;;5037866;28;20066;-74
2023/07/09 02:49:12;;;;;;;5.10;2.60;;;21.10;99.90;;;;;;5041448;28;20022;-74
2023/07/09 02:51:39;;;;;;;4.63;2.20;;;21.00;99.90;;;;;;5045794;28;20477;-74
2023/07/09 02:54:06;;;;;;;8.07;2.30;;;21.10;99.90;;;;;;5040375;28;20108;-74
2023/07/09 02:56:32;;;;;;;4.38;2.10;;;21.10;99.90;;;;;;5030649;28;20366;-74
2023/07/09 02:58:58;;;;;;;3.97;2.10;;;21.10;99.90;;;;;;5020580;28;20029;-74
2023/07/09 03:01:27;;;;;;;4.85;1.98;;;21.20;99.90;;;;;;5050125;28;20549;-75
2023/07/09 03:03:59;;;;;;;10.00;2.15;;;21.20;99.90;;;;;;5022607;28;20485;-74
2023/07/09 03:06:26;;;;;;;6.80;2.55;;;21.30;99.90;;;;;;5044697;28;20074;-75
2023/07/09 03:08:52;;;;;;;5.97;2.70;;;21.00;99.90;;;;;;5005964;28;20029;-74
2023/07/09 03:11:20;;;;;;;3.90;1.88;;;20.80;99.90;;;;;;5013828;28;20049;-74
2023/07/09 03:13:47;;;;;;;4.57;2.22;;;20.50;99.90;;;;;;5010827;28;20443;-74
2023/07/09 03:16:13;;;;;;;4.78;1.88;;;20.30;99.90;;;;;;5022473;28;20061;-74
2023/07/09 03:18:39;;;;;;;4.40;2.10;;;20.20;99.90;;;;;;5035375;28;20393;-74
2023/07/09 03:21:05;;;;;;;8.43;2.45;;;20.20;99.90;;;;;;5050175;28;20066;-74
2023/07/09 03:23:31;;;;;;;3.83;1.92;;;20.40;99.90;;;;;;5035769;28;20037;-74
2023/07/09 03:25:57;;;;;;;5.55;1.88;;;20.40;99.90;;;;;;5048771;28;20041;-74
2023/07/09 03:28:23;;;;;;;8.45;2.53;;;20.40;99.90;;;;;;5041820;28;20489;-74
2023/07/09 03:30:52;;;;;;;6.03;1.80;;;20.50;99.90;;;;;;5047953;28;20079;-75
2023/07/09 03:33:18;;;;;;;6.82;2.67;;;20.60;99.90;;;;;;5024694;28;20116;-74
2023/07/09 03:35:44;;;;;;;6.10;2.95;;;20.70;99.90;;;;;;5029337;28;20185;-74
2023/07/09 03:38:11;;;;;;;10.65;2.33;;;20.70;99.90;;;;;;5039002;28;20028;-74
2023/07/09 03:40:37;;;;;;;4.47;2.15;;;20.70;99.90;;;;;;5028169;28;20068;-74
2023/07/09 03:43:05;;;;;;;5.28;2.15;;;20.40;99.90;;;;;;5039706;28;20060;-74
2023/07/09 03:45:32;;;;;;;4.20;1.98;;;20.40;99.90;;;;;;5045335;28;20033;-74
2023/07/09 03:47:58;;;;;;;7.57;1.95;;;20.50;99.90;;;;;;5023098;28;20036;-74
2023/07/09 03:50:24;;;;;;;3.75;1.80;;;20.50;99.90;;;;;;5043754;28;20025;-75
2023/07/09 03:52:49;;;;;;;6.28;2.83;;;20.60;99.90;;;;;;5041176;28;20120;-74
2023/07/09 03:55:15;;;;;;;7.00;2.30;;;20.60;99.90;;;;;;5042770;28;20082;-74
2023/07/09 03:57:41;;;;;;;10.18;2.67;;;20.70;99.90;;;;;;5039941;28;20051;-74
2023/07/09 04:00:11;;;;;;;4.50;2.05;;;20.70;99.90;;;;;;5025068;28;20029;-74
2023/07/09 04:02:40;;;;;;;4.47;2.33;;;20.70;99.90;;;;;;5026989;28;20596;-74
2023/07/09 04:05:09;;;;;;;4.35;2.05;;;20.70;99.90;;;;;;5025001;28;20060;-74
2023/07/09 04:07:37;;;;;;;9.80;2.63;;;20.70;99.90;;;;;;5041312;28;20025;-74
2023/07/09 04:10:04;;;;;;;3.88;2.20;;;20.80;99.90;;;;;;5042499;28;20523;-74
2023/07/09 04:12:30;;;;;;;4.88;1.90;;;20.80;99.90;;;;;;5023217;28;20057;-74
2023/07/09 04:14:56;;;;;;;3.15;2.22;;;20.90;99.90;;;;;;5050796;22;20083;-67
2023/07/09 04:17:23;;;;;;;10.80;2.13;;;21.00;99.90;;;;;;5029743;28;20083;-67
2023/07/09 04:19:51;;;;;;;4.60;2.25;;;21.10;99.90;;;;;;5013484;28;20033;-67
2023/07/09 04:22:17;;;;;;;8.48;1.98;;;21.00;99.90;;;;;;5030586;28;20473;-67
2023/07/09 04:24:43;;;;;;;8.25;2.03;;;20.80;99.90;;;;;;5033665;28;20043;-67
2023/07/09 04:27:09;;;;;;;3.28;1.77;;;20.70;99.90;;;;;;5010994;28;20048;-67
2023/07/09 04:29:38;;;;;;;4.68;2.05;;;20.80;99.90;;;;;;4993573;28;20025;-67
2023/07/09 04:32:05;;;;;;;4.45;2.15;;;20.80;99.90;;;;;;5010585;28;20112;-67
2023/07/09 04:34:31;;;;;;;5.97;1.95;;;20.90;99.90;;;;;;5010933;28;20113;-67
2023/07/09 04:36:57;;;;;;;5.63;2.63;;;20.80;99.90;;;;;;5010250;28;20022;-67
2023/07/09 04:39:23;;;;;;;4.88;1.83;;;20.60;99.90;;;;;;5011216;28;20390;-67
2023/07/09 04:41:49;;;;;;;5.32;1.90;;;20.50;99.90;;;;;;5010318;28;20473;-67
2023/07/09 04:44:15;;;;;;;5.95;2.38;;;20.60;99.90;;;;;;5010619;28;20169;-67
2023/07/09 04:46:40;;;;;;;4.68;2.05;;;20.70;99.90;;;;;;5010347;28;20034;-67
2023/07/09 04:49:06;;;;;;;5.65;3.03;;;20.70;99.90;;;;;;5010684;28;20056;-67
2023/07/09 04:51:33;;;;;;;4.93;2.00;;;20.80;99.90;;;;;;5010259;28;20114;-67
2023/07/09 04:54:02;;;;;;;4.90;1.80;;;21.00;99.90;;;;;;5009860;28;20617;-67
2023/07/09 04:56:29;;;;;;;4.30;2.28;;;21.10;99.90;;;;;;5009864;28;20126;-67
2023/07/09 04:58:55;;;;;;;6.47;2.20;;;21.30;99.90;;;;;;5010692;28;20034;-67
2023/07/09 05:01:21;;;;;;;5.90;2.63;;;21.40;99.90;;;;;;4992618;28;20049;-67
2023/07/09 05:03:47;;;;;;;7.18;2.63;;;21.40;99.90;;;;;;5010382;28;20401;-67
2023/07/09 05:06:14;;;;;;;7.95;2.30;;;21.30;99.90;;;;;;5010245;28;20030;-67
2023/07/09 05:08:40;;;;;;;6.85;2.28;;;21.40;99.90;;;;;;4993252;28;20053;-67
2023/07/09 05:11:06;;;;;;;14.75;3.60;;;21.50;99.90;;;;;;4992525;28;20030;-67
2023/07/09 05:13:32;;;;;;;7.45;2.63;;;21.70;99.90;;;;;;4993440;28;20584;-67
2023/07/09 05:15:58;;;;;;;5.13;2.58;;;21.80;99.90;;;;;;5009494;28;20065;-67
2023/07/09 05:18:24;;;;;;;5.63;2.58;;;21.80;99.90;;;;;;5014322;28;20481;-68
2023/07/09 05:20:49;;;;;;;4.95;2.25;;;21.90;99.90;;;;;;5011636;28;20037;-68
2023/07/09 05:23:16;;;;;;;6.20;2.90;;;21.90;99.90;;;;;;5013561;28;20068;-60
2023/07/09 05:25:41;;;;;;;5.85;2.80;;;21.90;99.90;;;;;;5013853;28;20065;-64
2023/07/09 05:28:07;;;;;;;6.82;3.55;;;21.90;99.90;;;;;;5010361;28;20057;-65
2023/07/09 05:30:33;;;;;;;5.00;2.92;;;22.00;99.90;;;;;;5010452;28;20069;-65
2023/07/09 05:32:59;;;;;;;4.05;2.17;;;22.10;99.90;;;;;;5019836;28;20053;-64
2023/07/09 05:35:26;;;;;;;6.10;3.10;;;22.30;99.90;;;;;;5024079;28;20393;-65
2023/07/09 05:37:54;;;;;;;6.13;2.72;;;22.40;99.90;;;;;;5016840;28;20059;-64
2023/07/09 05:40:21;;;;;;;5.63;2.78;;;22.50;99.90;;;;;;4995651;28;20062;-64
2023/07/09 05:42:48;;;;;;;7.60;2.92;;;22.60;99.90;;;;;;5013703;28;20022;-65
2023/07/09 05:45:15;;;;;;;5.97;2.25;;;22.60;99.90;;;;;;4995567;28;20092;-66
2023/07/09 05:47:41;;;;;;;4.70;2.70;;;22.70;99.90;;;;;;5014315;28;20028;-66
2023/07/09 05:50:08;;;;;;;10.43;4.60;;;22.80;99.90;;;;;;5013475;28;20041;-65
2023/07/09 05:52:34;;;;;;;8.07;3.78;;;22.80;99.90;;;;;;4996072;28;20405;-65
2023/07/09 05:54:59;;;;;;;8.40;2.97;;;23.00;99.90;;;;;;5013060;28;20026;-66
2023/07/09 05:57:26;;;;;;;7.22;3.08;;;23.10;99.90;;;;;;5013631;28;20045;-66
2023/07/09 05:59:51;;;;;;;7.30;3.65;;;23.20;99.90;;;;;;5013335;28;20473;-63
2023/07/09 06:02:20;;;;;;;4.18;2.45;;;23.40;99.90;;;;;;5008294;28;20034;-62
2023/07/09 06:04:49;;;;;;;7.85;3.60;;;23.30;99.90;;;;;;5002647;28;20050;-63
2023/07/09 06:07:16;;;;;;;7.78;2.80;;;23.40;99.90;;;;;;5013530;28;20684;-64
2023/07/09 06:09:42;;;;;;;6.63;2.30;;;23.40;99.90;;;;;;5013427;28;20398;-64
2023/07/09 06:12:08;;;;;;;4.85;2.63;;;23.40;99.90;;;;;;5013034;28;20041;-64
2023/07/09 06:14:34;;;;;;;11.23;2.90;;;23.50;99.90;;;;;;5013262;28;20513;-63
2023/07/09 06:17:01;;;;;;;6.75;3.25;;;23.60;99.90;;;;;;4995107;28;20103;-63
2023/07/09 06:19:27;;;;;;;10.05;3.53;;;23.70;99.90;;;;;;5013170;28;20036;-63
2023/07/09 06:21:53;;;;;;;9.55;3.47;;;23.80;99.90;;;;;;4994204;28;20049;-67
2023/07/09 06:24:19;;;;;;;7.43;2.75;;;23.90;99.90;;;;;;4994866;28;20026;-61
2023/07/09 06:26:44;;;;;;;6.40;2.72;;;23.90;99.90;;;;;;4994992;28;20041;-61
2023/07/09 06:29:10;;;;;;;4.60;2.35;;;24.00;99.90;;;;;;4995586;28;20022;-61
2023/07/09 06:31:37;;;;;;;7.57;3.45;;;24.00;99.90;;;;;;4979257;28;20053;-75
2023/07/09 06:34:03;;;;;;;6.38;2.97;;;24.10;99.90;;;;;;5012844;28;20029;-76
2023/07/09 06:36:29;;;;;;;8.73;2.92;;;24.20;99.90;;;;;;4993788;28;20080;-74
2023/07/09 06:38:55;;;;;;;6.50;3.10;;;24.30;99.90;;;;;;5012011;28;20516;-74
2023/07/09 06:41:21;;;;;;;4.97;2.80;;;24.40;99.90;;;;;;5012601;28;20030;-74
2023/07/09 06:43:47;;;;;;;5.43;2.58;;;24.40;99.90;;;;;;4995128;28;20026;-74
2023/07/09 06:46:14;;;;;;;7.22;3.15;;;24.40;99.90;;;;;;5011480;28;20052;-75
2023/07/09 06:48:40;;;;;;;7.85;2.85;;;24.50;99.90;;;;;;4995661;28;20029;-75
2023/07/09 06:51:06;;;;;;;8.38;2.72;;;24.60;99.90;;;;;;5012372;28;20037;-74
2023/07/09 06:53:33;;;;;;;6.20;2.67;;;24.70;99.90;;;;;;5012628;28;20026;-74
2023/07/09 06:55:59;;;;;;;6.70;2.97;;;24.60;99.90;;;;;;4995077;28;20527;-74
2023/07/09 06:58:28;;;;;;;13.07;2.85;;;24.70;99.90;;;;;;5012660;28;20506;-74
2023/07/09 07:00:55;;;;;;;7.75;2.90;;;24.80;99.90;;;;;;5012329;28;20045;-74
2023/07/09 07:03:23;;;;;;;6.05;2.83;;;24.90;99.90;;;;;;5012376;28;20032;-74
2023/07/09 07:05:53;;;;;;;10.35;1.90;;;24.90;99.90;;;;;;5012411;28;20057;-75
2023/07/09 07:08:22;;;;;;;7.88;2.95;;;25.10;99.90;;;;;;5005038;28;20029;-74
2023/07/09 07:10:49;;;;;;;4.85;2.17;;;25.20;99.90;;;;;;5012076;28;20037;-74
2023/07/09 07:13:15;;;;;;;5.75;2.20;;;25.30;99.90;;;;;;5012142;28;20030;-74
2023/07/09 07:15:47;;;;;;;4.63;2.00;;;25.40;99.90;;;;;;5011580;28;20029;-74
2023/07/09 07:18:13;;;;;;;5.55;1.90;;;25.50;99.90;;;;;;5012407;28;20038;-74
2023/07/09 07:20:39;;;;;;;6.60;2.40;;;25.50;99.90;;;;;;5011945;28;20037;-74
2023/07/09 07:23:04;;;;;;;7.75;2.38;;;25.60;99.90;;;;;;5011759;28;20037;-74
2023/07/09 07:25:32;;;;;;;5.13;1.90;;;25.70;99.90;;;;;;5011908;28;20034;-74
2023/07/09 07:27:58;;;;;;;5.10;2.15;;;25.80;99.90;;;;;;4978386;28;20037;-74
2023/07/09 07:30:24;;;;;;;9.00;2.33;;;26.00;99.90;;;;;;5011047;28;20029;-74
2023/07/09 07:32:50;;;;;;;5.50;2.15;;;26.10;99.90;;;;;;5011810;28;20343;-75
2023/07/09 07:35:17;;;;;;;4.88;2.47;;;26.20;99.90;;;;;;4994164;28;20033;-75
2023/07/09 07:37:43;;;;;;;5.53;2.22;;;26.30;99.90;;;;;;4994643;28;20389;-75
2023/07/09 07:40:10;;;;;;;4.03;2.00;;;26.30;99.10;;;;;;5012069;28;20642;-74
2023/07/09 07:42:36;;;;;;;3.67;1.80;;;26.40;99.00;;;;;;5011653;28;20037;-75
2023/07/09 07:45:03;;;;;;;5.95;2.25;;;26.50;98.70;;;;;;4993424;28;20545;-75
2023/07/09 07:47:29;;;;;;;5.50;2.20;;;26.60;98.70;;;;;;5014178;28;20036;-75
2023/07/09 07:49:56;;;;;;;10.82;2.70;;;26.70;98.50;;;;;;4993718;28;20018;-75
2023/07/09 07:52:23;;;;;;;3.70;1.90;;;26.80;98.00;;;;;;5011333;28;20080;-75
2023/07/09 07:54:50;;;;;;;6.57;2.58;;;26.90;97.60;;;;;;4993911;28;20069;-74
2023/07/09 07:57:16;;;;;;;4.35;2.30;;;26.90;97.40;;;;;;5011590;28;20018;-75
2023/07/09 07:59:41;;;;;;;6.22;2.13;;;27.10;97.10;;;;;;5011711;28;20045;-74
2023/07/09 08:02:13;;;;;;;5.60;2.55;;;27.30;97.00;;;;;;5010645;28;20057;-74
2023/07/09 08:04:40;;;;;;;3.85;1.90;;;27.40;96.60;;;;;;4994064;28;20036;-74
2023/07/09 08:07:10;;;;;;;3.83;1.65;;;27.50;96.20;;;;;;4977231;28;20109;-74
2023/07/09 08:09:36;;;;;;;4.60;2.28;;;27.40;96.30;;;;;;5011348;28;20049;-69
2023/07/09 08:12:09;;;;;;;4.93;1.85;;;27.70;96.30;;;;;;5010829;28;20099;-71
2023/07/09 08:14:36;;;;;;;4.43;1.85;;;27.80;95.80;;;;;;4994450;28;20080;-69
2023/07/09 08:17:02;;;;;;;5.82;1.95;;;27.80;95.80;;;;;;5010680;28;20505;-71
2023/07/09 08:19:28;;;;;;;5.85;2.22;;;28.10;95.60;;;;;;5011433;28;20034;-71
2023/07/09 08:21:53;;;;;;;4.00;1.70;;;28.20;95.40;;;;;;5011104;28;20068;-72
2023/07/09 08:24:19;;;;;;;5.68;2.10;;;28.30;95.10;;;;;;4993373;28;20124;-70
2023/07/09 08:26:45;;;;;;;4.10;2.00;;;28.40;95.10;;;;;;5010808;28;20520;-72
2023/07/09 08:29:10;;;;;;;4.00;1.63;;;28.40;94.80;;;;;;5010872;28;20212;-72
2023/07/09 08:31:36;;;;;;;5.00;1.95;;;28.50;94.70;;;;;;5010805;28;20101;-71
2023/07/09 08:34:02;;;;;;;5.15;1.92;;;28.70;94.70;;;;;;5010809;28;20440;-71
2023/07/09 08:36:28;;;;;;;3.20;1.65;;;28.80;94.60;;;;;;4992750;28;20029;-71
2023/07/09 08:38:53;;;;;;;5.35;2.45;;;28.90;94.30;;;;;;5011142;28;20038;-71
2023/07/09 08:41:41;;;;;;;5.85;2.10;;;29.00;94.10;;;;;;5008814;28;20030;-71
2023/07/09 08:44:41;;;;;;;7.85;2.30;;;29.10;94.00;;;;;;5009344;28;20626;-71
2023/07/09 08:47:23;;;;;;;;;;;29.00;93.90;;;;;;4996133;28;20045;-72
2023/07/09 08:50:04;;;;;;;5.80;1.98;;;29.10;93.80;;;;;;5009295;28;20455;-71
2023/07/09 08:52:43;;;;;;;4.55;2.83;;;29.10;93.60;;;;;;4994096;28;20054;-70
2023/07/09 08:55:23;;;;;;;4.03;2.00;;;29.30;93.50;;;;;;5009971;28;20444;-71
2023/07/09 08:58:03;;;;;;;3.85;2.63;;;29.50;93.10;;;;;;4993548;28;20034;-72
2023/07/09 09:00:39;;;;;;;7.10;2.90;;;29.60;92.90;;;;;;4990910;28;20033;-70
2023/07/09 09:03:29;;;;;;;4.38;2.30;;;29.70;92.50;;;;;;4991596;28;20030;-70
2023/07/09 09:05:55;;;;;;;4.72;2.55;;;29.70;92.30;;;;;;5010707;28;20030;-71
2023/07/09 09:08:36;;;;;;;4.07;2.05;;;29.80;92.40;;;;;;4992171;28;20050;-70
2023/07/09 09:11:21;;;;;;;3.95;2.00;;;29.90;92.20;;;;;;5010602;28;20502;-71
2023/07/09 09:13:51;;;;;;;4.28;2.05;;;30.00;92.20;;;;;;4989049;28;20505;-71
2023/07/09 09:16:39;;;;;;;5.25;2.42;;;30.10;91.60;;;;;;4992240;28;20069;-71
2023/07/09 09:19:38;;;;;;;5.97;2.25;;;30.10;91.40;;;;;;4991449;28;20066;-71
2023/07/09 09:22:15;;;;;;;6.65;2.10;;;30.20;91.50;;;;;;4993421;28;20038;-71
2023/07/09 09:24:55;;;;;;;3.53;1.63;;;30.40;91.30;;;;;;4993249;28;20109;-71
2023/07/09 09:27:21;;;;;;;5.15;2.50;;;30.60;90.90;;;;;;4993538;28;20381;-71
2023/07/09 09:29:47;;;;;;;5.60;2.38;;;30.70;90.90;;;;;;5009073;28;20030;-71
2023/07/09 09:32:29;;;;;;;3.28;1.70;;;30.80;89.60;;;;;;5010452;28;20030;-72
2023/07/09 09:34:55;;;;;;;8.70;2.30;;;30.90;89.20;;;;;;5003571;28;20429;-73
2023/07/09 09:37:29;;;;;;;7.30;2.60;;;31.00;89.90;;;;;;5008554;28;20422;-73
2023/07/09 09:39:56;;;;;;;5.80;1.77;;;31.20;89.80;;;;;;4991041;28;20030;-73
2023/07/09 09:42:25;;;;;;;4.05;2.00;;;31.30;89.40;;;;;;5012165;28;20034;-73
2023/07/09 09:44:53;;;;;;;5.22;1.52;;;31.40;88.40;;;;;;4993731;28;20121;-74
2023/07/09 09:47:20;;;;;;;3.95;1.85;;;31.40;87.80;;;;;;5014949;28;20025;-73
2023/07/09 09:49:46;;;;;;;4.45;1.77;;;31.60;86.80;;;;;;5003238;28;20030;-72
2023/07/09 09:52:18;;;;;;;4.13;2.00;;;31.70;85.20;;;;;;5007769;28;20511;-73
2023/07/09 09:55:10;;;;;;;8.32;1.70;;;31.80;83.90;;;;;;5010068;28;20057;-73
2023/07/09 09:57:36;;;;;;;5.80;1.67;;;31.90;84.30;;;;;;4987920;28;20017;-74
2023/07/09 10:00:02;;;;;;;5.43;1.65;;;32.00;84.20;;;;;;5010234;28;20026;-73
2023/07/09 10:02:28;;;;;;;3.25;1.75;;;31.80;85.00;;;;;;5011943;28;20072;-73
2023/07/09 10:04:54;;;;;;;3.33;1.85;;;31.80;84.40;;;;;;4993920;28;20037;-73
2023/07/09 10:07:34;;;;;;;3.80;1.70;;;31.80;84.90;;;;;;5014314;28;20478;-73
2023/07/09 10:10:01;;;;;;;;;;;31.90;84.20;;;;;;4995713;28;20066;-72
2023/07/09 10:12:57;;;;;;;3.47;1.70;;;32.20;83.50;;;;;;4996066;28;19924;-75
2023/07/09 10:15:51;;;;;;;4.45;2.20;;;32.30;82.00;;;;;;4980974;28;20045;-69
2023/07/09 10:18:43;;;;;;;3.20;1.70;;;32.20;80.40;;;;;;5021851;22;20072;-68
2023/07/09 10:21:34;;;;;;;3.42;1.85;;;32.40;81.20;;;;;;5032903;28;20025;-68
2023/07/09 10:24:51;;;;;;;2.65;1.13;;;32.60;81.10;;;;;;5015581;28;20065;-69
2023/07/09 10:27:39;;;;;;;7.10;1.80;;;32.90;80.30;;;;;;5005554;28;20056;-69
2023/07/09 10:30:42;;;;;;;2.97;1.40;;;32.90;78.80;;;;;;5025278;28;20033;-70
2023/07/09 10:33:21;;;;;;;4.15;1.50;;;32.80;78.00;;;;;;5030724;28;20034;-69
2023/07/09 10:36:16;;;;;;;3.22;1.60;;;33.00;78.10;;;;;;5021657;28;20076;-70
2023/07/09 10:38:54;;;;;;;3.80;1.48;;;33.10;77.70;;;;;;5027768;28;20033;-70
2023/07/09 10:41:20;;;;;;;6.13;1.52;;;33.00;77.90;;;;;;5014115;28;20025;-71
2023/07/09 10:43:54;;;;;;;3.33;1.65;;;33.40;77.90;;;;;;5022905;28;20047;-70
2023/07/09 10:46:25;;;;;;;4.20;1.35;;;33.70;76.70;;;;;;5029476;28;20025;-69
2023/07/09 10:48:57;;;;;;;4.35;1.85;;;33.70;75.00;;;;;;5023332;28;20037;-71
2023/07/09 10:51:37;;;;;;;6.60;1.77;;;33.80;75.00;;;;;;4995664;28;20022;-69
2023/07/09 10:54:03;;;;;;;;;;;33.80;75.00;;;;;;5022069;28;20063;-71
2023/07/09 10:56:35;;;;;;;5.80;1.65;;;34.20;74.20;;;;;;5030895;28;19913;-72
2023/07/09 10:59:28;;;;;;;3.10;1.48;;;34.30;74.40;;;;;;5030217;28;20478;-71
2023/07/09 11:02:22;;;;;;;6.07;1.77;;;34.70;72.90;;;;;;5010671;28;20049;-71
2023/07/09 11:05:09;;;;;;;2.58;1.48;;;34.50;73.10;;;;;;5022598;28;20030;-72
2023/07/09 11:08:00;;;;;;;2.53;1.25;;;34.60;70.00;;;;;;5021465;28;20034;-73
2023/07/09 11:10:41;;;;;;;2.95;1.15;;;34.80;68.80;;;;;;5023433;28;20030;-71
2023/07/09 11:13:28;;;;;;;2.15;1.00;;;35.10;68.70;;;;;;5027260;28;20064;-72
2023/07/09 11:15:57;;;;;;;4.20;1.40;;;35.30;66.90;;;;;;5027415;28;20045;-70
2023/07/09 11:18:33;;;;;;;2.05;1.25;;;35.50;66.00;;;;;;5011875;28;20405;-70
2023/07/09 11:21:17;;;;;;;3.13;0.88;;;35.70;64.70;;;;;;5003745;28;20617;-72
2023/07/09 11:24:02;;;;;;;7.38;1.48;;;35.70;64.60;;;;;;5027245;28;20045;-71
2023/07/09 11:26:31;;;;;;;4.32;1.52;;;35.60;63.30;;;;;;5010384;28;20041;-73
2023/07/09 11:29:16;;;;;;;4.85;1.25;;;35.90;62.20;;;;;;5026377;28;20030;-70
2023/07/09 11:31:47;;;;;;;3.55;1.73;;;35.90;61.40;;;;;;5028604;28;20397;-72
2023/07/09 11:34:13;;;;;;;3.95;1.65;;;36.00;60.40;;;;;;5013627;28;20107;-72
2023/07/09 11:36:59;;;;;;;2.45;1.02;;;36.10;60.80;;;;;;5026259;28;20424;-73
2023/07/09 11:39:39;;;;;;;3.45;1.05;;;35.90;59.80;;;;;;5010981;28;20034;-72
2023/07/09 11:42:31;;;;;;;4.50;1.23;;;35.80;59.70;;;;;;5009211;28;20037;-72
2023/07/09 11:45:10;;;;;;;1.98;0.98;;;35.70;59.10;;;;;;5014069;28;20084;-72
2023/07/09 11:47:54;;;;;;;1.55;0.90;;;35.50;57.50;;;;;;5017751;28;20045;-71
2023/07/09 11:50:29;;;;;;;2.38;1.10;;;35.90;57.40;;;;;;5023809;28;20044;-72
2023/07/09 11:53:12;;;;;;;2.15;0.98;;;36.10;58.00;;;;;;5024083;28;20497;-71
2023/07/09 11:55:42;;;;;;;4.25;2.05;;;36.40;57.30;;;;;;5030513;28;20038;-72
2023/07/09 11:58:13;;;;;;;2.55;0.85;;;36.20;57.80;;;;;;5024797;28;20393;-73
2023/07/09 12:00:57;;;;;;;3.13;1.30;;;36.40;57.70;;;;;;5016874;28;20029;-72
2023/07/09 12:03:34;;;;;;;3.33;1.25;;;36.60;58.10;;;;;;5006502;28;20029;-69
2023/07/09 12:06:24;;;;;;;3.60;1.13;;;36.70;57.30;;;;;;5025404;28;20510;-69
2023/07/09 12:08:51;;;;;;;4.07;1.63;;;36.80;55.50;;;;;;5013183;28;20029;-69
2023/07/09 12:11:33;;;;;;;3.83;1.35;;;36.80;54.90;;;;;;5012630;28;20028;-69
2023/07/09 12:14:13;;;;;;;1.70;1.00;;;37.20;54.20;;;;;;5012901;28;20563;-69
2023/07/09 12:16:47;;;;;;;;;;;37.20;54.60;;;;;;5030523;28;20029;-69
2023/07/09 12:19:17;;;;;;;1.67;0.80;;;37.20;54.50;;;;;;5028530;28;19990;-69
2023/07/09 12:21:50;;;;;;;2.28;1.20;;;37.40;55.00;;;;;;5030041;28;20033;-69
2023/07/09 12:24:28;;;;;;;3.22;1.00;;;37.20;54.00;;;;;;5025561;28;20127;-69
2023/07/09 12:26:58;;;;;;;3.45;1.27;;;37.00;53.70;;;;;;5029904;28;20625;-69
2023/07/09 12:29:53;;;;;;;3.33;1.27;;;36.70;53.40;;;;;;5028136;28;20116;-69
2023/07/09 12:32:22;;;;;;;2.63;1.17;;;37.30;54.00;;;;;;5011364;28;20044;-69
2023/07/09 12:34:51;;;;;;;3.45;1.90;;;37.70;53.60;;;;;;5028310;28;20026;-69
2023/07/09 12:37:20;;;;;;;3.75;1.40;;;37.80;53.00;;;;;;5030139;28;20030;-68
2023/07/09 12:39:47;;;;;;;2.60;1.00;;;38.00;52.70;;;;;;5027816;28;20037;-69
2023/07/09 12:42:28;;;;;;;2.30;0.98;;;38.00;53.00;;;;;;5029950;28;20029;-70
2023/07/09 12:44:54;;;;;;;2.13;1.20;;;38.40;52.80;;;;;;5010757;28;20042;-71
2023/07/09 12:47:23;;;;;;;1.88;1.10;;;38.80;51.50;;;;;;5030008;28;20032;-71
2023/07/09 12:49:51;;;;;;;4.10;1.13;;;39.00;51.20;;;;;;5015433;28;20033;-69
2023/07/09 12:52:24;;;;;;;3.50;1.27;;;38.70;52.00;;;;;;5029489;28;20029;-69
2023/07/09 12:55:02;;;;;;;2.85;1.20;;;38.60;50.30;;;;;;5025828;28;20113;-69
2023/07/09 12:57:30;;;;;;;4.03;1.27;;;38.70;50.10;;;;;;5022965;28;20152;-69
2023/07/09 12:59:56;;;;;;;2.72;1.10;;;38.20;49.60;;;;;;5019365;28;20040;-69
2023/07/09 13:02:28;;;;;;;2.05;1.10;;;38.70;49.50;;;;;;5008947;28;20026;-68
2023/07/09 13:05:06;;;;;;;2.20;1.00;;;38.70;50.10;;;;;;5024339;28;20045;-70
2023/07/09 13:07:39;;;;;;;2.75;0.98;;;38.90;49.80;;;;;;5010417;28;20108;-69